Time;durP1;ratioP1;P1;durP2;ratioP2;P2;SDS_P1;SDS_P2;PMS_P1;PMS_P2;Temp;Humidity;BMP_temperature;BMP_pressure;BME280_temperature;BME280_humidity;BME280_pressure;Samples;Min_cycle;Max_cycle;Signal;HPM_P1;HPM_P2
2022/06/23 00:01:54;;;;;;;1.77;1.48;;;15.30;99.90;;;;;;5072974;28;20149;-81
2022/06/23 00:04:24;;;;;;;2.65;1.90;;;15.30;99.90;;;;;;5073053;28;20142;-82
2022/06/23 00:06:55;;;;;;;5.40;1.77;;;15.30;99.90;;;;;;5073560;28;20028;-82
2022/06/23 00:09:34;;;;;;;3.28;1.30;;;15.20;99.90;;;;;;5073741;28;20412;-82
2022/06/23 00:12:20;;;;;;;1.70;1.50;;;15.20;99.90;;;;;;5072892;28;20028;-82
2022/06/23 00:14:52;;;;;;;2.42;1.27;;;15.10;99.90;;;;;;5070909;28;20044;-82
2022/06/23 00:17:34;;;;;;;2.40;1.83;;;15.10;99.90;;;;;;5055229;28;20428;-82
2022/06/23 00:20:09;;;;;;;3.47;1.30;;;15.10;99.90;;;;;;5059856;28;20546;-82
2022/06/23 00:22:36;;;;;;;1.90;1.23;;;15.10;99.90;;;;;;5072946;28;20487;-82
2022/06/23 00:25:04;;;;;;;1.75;1.23;;;15.10;99.90;;;;;;5072024;28;20028;-82
2022/06/23 00:27:32;;;;;;;4.95;1.75;;;15.10;99.90;;;;;;5056816;28;20124;-83
2022/06/23 00:30:05;;;;;;;4.18;2.00;;;15.00;99.90;;;;;;5054207;28;20037;-83
2022/06/23 00:32:31;;;;;;;4.20;1.55;;;15.00;99.90;;;;;;5070760;28;20071;-82
2022/06/23 00:35:04;;;;;;;3.40;1.67;;;14.90;99.90;;;;;;5074050;28;20032;-82
2022/06/23 00:37:30;;;;;;;3.05;1.67;;;14.90;99.90;;;;;;5052718;28;20028;-82
2022/06/23 00:40:11;;;;;;;1.92;1.63;;;14.90;99.90;;;;;;5056072;28;20025;-81
2022/06/23 00:43:03;;;;;;;3.67;1.50;;;14.80;99.90;;;;;;5057386;28;20029;-82
2022/06/23 00:45:40;;;;;;;3.58;1.70;;;14.80;99.90;;;;;;5073474;28;20024;-82
2022/06/23 00:48:34;;;;;;;3.45;1.88;;;14.80;99.90;;;;;;5074001;28;20051;-82
2022/06/23 00:51:06;;;;;;;3.13;1.70;;;14.70;99.90;;;;;;5072091;28;20028;-82
2022/06/23 00:53:35;;;;;;;5.13;1.75;;;14.60;99.90;;;;;;5073827;28;20508;-82
2022/06/23 00:56:08;;;;;;;2.95;1.60;;;14.60;99.90;;;;;;5072816;28;20090;-82
2022/06/23 00:58:54;;;;;;;3.00;1.92;;;14.50;99.90;;;;;;5074209;28;20111;-83
2022/06/23 01:01:43;;;;;;;3.08;1.70;;;14.50;99.90;;;;;;5071382;28;20033;-82
2022/06/23 02:06:49;;;;;;;3.67;2.10;;;13.70;99.90;;;;;;5072145;28;20535;-82
2022/06/23 02:09:40;;;;;;;2.90;1.83;;;13.80;99.90;;;;;;5071268;28;20403;-82
2022/06/23 02:12:47;;;;;;;2.17;1.60;;;13.80;99.90;;;;;;5071499;28;20032;-82
2022/06/23 02:15:14;;;;;;;;;;;13.80;99.90;;;;;;5037980;28;20484;-82
2022/06/23 02:17:43;;;;;;;1.60;1.50;;;13.70;99.90;;;;;;5072499;28;19904;-82
2022/06/23 02:20:35;;;;;;;2.13;1.70;;;13.70;99.90;;;;;;5058664;28;20029;-82
2022/06/23 02:23:22;;;;;;;3.85;1.65;;;13.70;99.90;;;;;;5063961;28;20070;-82
2022/06/23 02:26:06;;;;;;;2.42;1.73;;;13.70;99.90;;;;;;5071885;28;20024;-81
2022/06/23 02:28:44;;;;;;;2.90;1.83;;;13.70;99.90;;;;;;5072632;28;20086;-82
2022/06/23 02:31:33;;;;;;;1.70;1.58;;;13.70;99.90;;;;;;5071881;28;20060;-82
2022/06/23 02:34:23;;;;;;;3.00;2.08;;;13.70;99.90;;;;;;5056731;28;20079;-81
2022/06/23 02:37:36;;;;;;;2.35;1.88;;;13.60;99.90;;;;;;5056293;28;20044;-81
2022/06/23 02:40:03;;;;;;;2.03;1.60;;;13.60;99.90;;;;;;5028417;28;20032;-82
2022/06/23 02:42:38;;;;;;;2.60;1.73;;;13.60;99.90;;;;;;5074764;28;20040;-81
2022/06/23 02:45:16;;;;;;;2.97;1.80;;;13.50;99.90;;;;;;5056033;28;20018;-82
2022/06/23 02:48:17;;;;;;;9.93;1.98;;;13.50;99.90;;;;;;5057485;28;20158;-82
2022/06/23 02:51:04;;;;;;;5.57;2.10;;;13.40;99.90;;;;;;5071978;28;20024;-82
2022/06/23 02:53:52;;;;;;;4.18;1.88;;;13.40;99.90;;;;;;5076187;28;20104;-82
2022/06/23 02:56:38;;;;;;;3.17;1.83;;;13.40;99.90;;;;;;5074246;28;20020;-82
2022/06/23 02:59:19;;;;;;;2.03;1.80;;;13.30;99.90;;;;;;5074835;28;20024;-82
2022/06/23 03:01:51;;;;;;;2.75;1.95;;;13.30;99.90;;;;;;5073672;28;20028;-82
2022/06/23 03:04:23;;;;;;;3.15;2.22;;;13.30;99.90;;;;;;5074556;28;20384;-82
2022/06/23 03:07:29;;;;;;;5.45;2.53;;;13.30;99.90;;;;;;5075623;28;20032;-82
2022/06/23 03:10:25;;;;;;;5.53;2.53;;;13.30;99.90;;;;;;5031561;28;20439;-83
2022/06/23 03:13:07;;;;;;;1.67;1.58;;;13.30;99.90;;;;;;5047975;28;20451;-82
2022/06/23 03:15:46;;;;;;;2.33;2.05;;;13.20;99.90;;;;;;5072419;28;20472;-82
2022/06/23 03:18:28;;;;;;;4.85;2.55;;;13.20;99.90;;;;;;5074415;28;20025;-82
2022/06/23 03:21:07;;;;;;;7.95;2.58;;;13.10;99.90;;;;;;5070759;28;20033;-82
2022/06/23 03:23:43;;;;;;;2.13;1.92;;;13.10;99.90;;;;;;5056203;28;20032;-82
2022/06/23 03:26:43;;;;;;;2.28;1.75;;;13.00;99.90;;;;;;5075356;28;20033;-82
2022/06/23 03:29:18;;;;;;;3.53;2.40;;;13.10;99.90;;;;;;5055433;28;20111;-82
2022/06/23 03:32:04;;;;;;;3.72;2.35;;;13.10;99.90;;;;;;5058666;28;20033;-82
2022/06/23 03:35:09;;;;;;;1.80;1.67;;;13.10;99.90;;;;;;5074445;28;20040;-82
2022/06/23 03:37:35;;;;;;;12.38;2.42;;;13.10;99.90;;;;;;5058514;28;20500;-82
2022/06/23 03:43:25;;;;;;;3.05;1.65;;;13.20;99.90;;;;;;5073531;28;20440;-82
2022/06/23 03:46:05;;;;;;;2.40;1.83;;;13.20;99.90;;;;;;5064340;28;20033;-82
2022/06/23 03:48:39;;;;;;;2.15;1.90;;;13.20;99.90;;;;;;5072199;28;20036;-81
2022/06/23 03:51:18;;;;;;;5.63;2.10;;;13.30;99.90;;;;;;5061411;28;20028;-82
2022/06/23 03:54:09;;;;;;;5.53;2.15;;;13.20;99.90;;;;;;5072025;28;20051;-81
2022/06/23 03:56:47;;;;;;;3.72;1.98;;;13.30;99.90;;;;;;5063284;28;20476;-82
2022/06/23 03:59:28;;;;;;;3.03;2.17;;;13.30;99.90;;;;;;5074816;28;20029;-81
2022/06/23 04:02:10;;;;;;;2.72;2.00;;;13.30;99.90;;;;;;5072962;28;20020;-81
2022/06/23 04:04:47;;;;;;;4.30;1.60;;;13.40;99.90;;;;;;5073963;28;20041;-81
2022/06/23 04:08:03;;;;;;;3.90;2.20;;;13.40;99.90;;;;;;5067572;28;20028;-82
2022/06/23 04:10:33;;;;;;;2.58;2.13;;;13.50;99.90;;;;;;5040431;28;20048;-81
2022/06/23 04:13:06;;;;;;;3.15;2.00;;;13.50;99.90;;;;;;5066958;28;20029;-82
2022/06/23 04:15:39;;;;;;;2.10;1.90;;;13.60;99.90;;;;;;5054577;28;20036;-81
2022/06/23 04:18:09;;;;;;;2.92;1.88;;;13.60;99.90;;;;;;5065598;28;20028;-82
2022/06/23 04:20:41;;;;;;;4.05;2.22;;;13.70;99.90;;;;;;5071655;28;20017;-82
2022/06/23 04:23:17;;;;;;;3.72;2.22;;;13.70;99.90;;;;;;5061394;28;20025;-82
2022/06/23 04:26:06;;;;;;;2.53;1.98;;;13.80;99.90;;;;;;5067561;28;20107;-81
2022/06/23 04:28:44;;;;;;;2.80;2.05;;;13.80;99.90;;;;;;5054340;28;20017;-82
2022/06/23 04:31:20;;;;;;;2.72;2.10;;;13.90;99.90;;;;;;5054381;28;20036;-82
2022/06/23 04:33:47;;;;;;;3.28;1.88;;;13.90;99.90;;;;;;5051046;28;20029;-82
2022/06/23 04:36:25;;;;;;;6.78;2.00;;;14.00;99.90;;;;;;5073728;28;20021;-81
2022/06/23 04:38:58;;;;;;;5.63;1.85;;;14.10;99.90;;;;;;5065002;28;20556;-82
2022/06/23 04:41:35;;;;;;;3.13;1.90;;;14.20;99.90;;;;;;5058183;28;20540;-82
2022/06/23 04:44:13;;;;;;;2.15;2.00;;;14.30;99.90;;;;;;5073962;28;20029;-82
2022/06/23 04:46:42;;;;;;;6.30;2.15;;;14.40;99.90;;;;;;5074084;28;20028;-81
2022/06/23 04:49:43;;;;;;;2.40;2.13;;;14.40;99.90;;;;;;5070340;28;20377;-82
2022/06/23 04:52:15;;;;;;;4.20;2.20;;;14.50;99.90;;;;;;5072525;28;20107;-83
2022/06/23 04:55:05;;;;;;;6.22;2.28;;;14.60;99.90;;;;;;5073494;28;20031;-82
2022/06/23 04:57:49;;;;;;;2.05;1.85;;;14.70;99.90;;;;;;5052706;28;20500;-82
2022/06/23 05:00:20;;;;;;;2.50;2.25;;;14.80;99.90;;;;;;5064388;28;20021;-81
2022/06/23 05:02:53;;;;;;;3.95;2.40;;;14.90;99.90;;;;;;5073328;28;20032;-81
2022/06/23 05:05:23;;;;;;;3.97;2.05;;;15.00;99.90;;;;;;5065871;28;20119;-81
2022/06/23 05:08:25;;;;;;;4.15;1.95;;;15.00;99.90;;;;;;5063711;28;20402;-81
2022/06/23 05:11:12;;;;;;;2.70;2.00;;;15.10;99.90;;;;;;5054980;28;20047;-82
2022/06/23 05:13:49;;;;;;;8.05;3.03;;;15.20;99.90;;;;;;5070001;28;20017;-81
2022/06/23 05:16:26;;;;;;;2.65;2.05;;;15.20;99.90;;;;;;5072228;28;20070;-81
2022/06/23 05:18:54;;;;;;;2.28;1.85;;;15.30;99.90;;;;;;5065486;28;20028;-81
2022/06/23 05:21:24;;;;;;;4.00;2.20;;;15.40;99.90;;;;;;5067818;28;20504;-82
2022/06/23 05:24:00;;;;;;;8.85;2.78;;;15.50;99.90;;;;;;5069093;28;20032;-82
2022/06/23 05:26:38;;;;;;;8.13;2.78;;;15.60;99.90;;;;;;5067970;28;20032;-81
2022/06/23 05:29:27;;;;;;;6.45;2.45;;;15.70;99.90;;;;;;5072093;28;20104;-81
2022/06/23 05:31:56;;;;;;;3.67;2.72;;;15.80;99.90;;;;;;5065867;28;20024;-81
2022/06/23 05:34:27;;;;;;;8.00;2.58;;;15.90;99.90;;;;;;5063939;28;20056;-81
2022/06/23 05:37:11;;;;;;;4.63;2.67;;;16.00;99.90;;;;;;5069460;28;20021;-81
2022/06/23 05:40:04;;;;;;;4.25;2.15;;;16.20;99.90;;;;;;5065995;28;20020;-80
2022/06/23 05:42:31;;;;;;;5.63;2.47;;;16.20;99.90;;;;;;5068982;28;20572;-81
2022/06/23 05:45:11;;;;;;;3.50;2.15;;;16.40;99.90;;;;;;5067932;28;20418;-81
2022/06/23 05:47:37;;;;;;;5.57;1.98;;;16.50;99.90;;;;;;5069048;28;20381;-81
2022/06/23 05:50:12;;;;;;;4.47;2.03;;;16.50;99.90;;;;;;5068724;28;20063;-81
2022/06/23 05:52:58;;;;;;;3.80;2.35;;;16.50;99.90;;;;;;5065644;28;20023;-81
2022/06/23 05:55:33;;;;;;;6.13;2.55;;;16.70;99.90;;;;;;5070313;28;20095;-81
2022/06/23 05:58:13;;;;;;;5.78;2.05;;;16.80;99.90;;;;;;5065357;28;20378;-81
2022/06/23 06:01:06;;;;;;;2.50;2.03;;;16.90;99.90;;;;;;5056567;28;20025;-81
2022/06/23 06:03:45;;;;;;;6.60;2.75;;;17.00;99.90;;;;;;5069288;28;20052;-81
2022/06/23 06:06:11;;;;;;;6.22;2.58;;;17.00;99.90;;;;;;5068864;28;20060;-81
2022/06/23 06:11:31;;;;;;;12.23;2.83;;;17.10;99.90;;;;;;5057546;28;20098;-81
2022/06/23 06:13:59;;;;;;;7.38;2.72;;;17.20;99.90;;;;;;5064062;28;20048;-81
2022/06/23 06:16:24;;;;;;;6.95;2.60;;;17.30;99.90;;;;;;5068143;28;20121;-81
2022/06/23 06:18:51;;;;;;;11.70;2.45;;;17.30;99.90;;;;;;5066088;28;20052;-82
2022/06/23 06:21:20;;;;;;;13.50;3.00;;;17.40;99.90;;;;;;5064767;28;20056;-82
2022/06/23 06:23:59;;;;;;;7.53;2.85;;;17.40;99.90;;;;;;5068951;28;20035;-81
2022/06/23 06:26:35;;;;;;;12.43;3.10;;;17.50;99.90;;;;;;5065234;28;20020;-81
2022/06/23 06:29:22;;;;;;;8.25;3.10;;;17.60;99.90;;;;;;5059900;28;20028;-81
2022/06/23 06:31:52;;;;;;;15.75;3.75;;;17.60;99.90;;;;;;5059516;28;20039;-81
2022/06/23 06:34:29;;;;;;;18.42;4.78;;;17.60;99.90;;;;;;5070430;28;20029;-81
2022/06/23 06:36:55;;;;;;;15.18;3.75;;;17.70;99.90;;;;;;5061432;28;20997;-81
2022/06/23 06:39:33;;;;;;;8.82;2.67;;;17.80;99.90;;;;;;5063493;28;20171;-81
2022/06/23 06:42:19;;;;;;;5.03;2.70;;;17.90;99.90;;;;;;5071096;28;20356;-81
2022/06/23 06:44:48;;;;;;;15.55;3.00;;;17.90;99.90;;;;;;5055360;28;20465;-81
2022/06/23 06:47:20;;;;;;;4.88;2.33;;;17.90;99.90;;;;;;5069041;28;20078;-81
2022/06/23 06:49:46;;;;;;;8.77;3.10;;;18.00;99.90;;;;;;5070720;28;20506;-81
2022/06/23 06:52:12;;;;;;;5.47;2.80;;;18.10;99.90;;;;;;5072193;28;20503;-81
2022/06/23 06:54:45;;;;;;;12.35;3.55;;;18.20;99.90;;;;;;5070151;28;20376;-81
2022/06/23 06:57:22;;;;;;;5.40;3.08;;;18.30;99.90;;;;;;5052065;28;20503;-81
2022/06/23 07:00:01;;;;;;;17.10;3.38;;;18.40;99.90;;;;;;5069909;28;20033;-81
2022/06/23 07:02:35;;;;;;;8.77;3.00;;;18.40;99.90;;;;;;5087491;28;20031;-81
2022/06/23 07:05:32;;;;;;;7.40;3.13;;;18.50;99.90;;;;;;5078891;28;20052;-81
2022/06/23 07:08:05;;;;;;;6.78;2.80;;;18.60;99.90;;;;;;5073073;28;20393;-81
2022/06/23 07:10:43;;;;;;;4.53;2.90;;;18.70;99.90;;;;;;5083409;28;20089;-81
2022/06/23 07:13:23;;;;;;;9.95;3.50;;;18.70;99.90;;;;;;5068826;28;20119;-81
2022/06/23 07:15:55;;;;;;;10.13;3.17;;;18.80;99.90;;;;;;5071596;28;20604;-81
2022/06/23 07:18:53;;;;;;;9.65;3.28;;;18.90;99.90;;;;;;5082482;28;20549;-81
2022/06/23 07:21:24;;;;;;;11.23;3.55;;;18.90;99.90;;;;;;5075178;28;20055;-81
2022/06/23 07:23:52;;;;;;;7.53;3.38;;;19.00;99.90;;;;;;5077470;28;20123;-82
2022/06/23 07:26:37;;;;;;;8.38;3.28;;;19.10;99.90;;;;;;5083631;28;20022;-82
2022/06/23 07:29:31;;;;;;;5.93;2.97;;;19.30;99.90;;;;;;5072530;28;20031;-81
2022/06/23 07:32:05;;;;;;;11.13;3.20;;;19.40;99.90;;;;;;5077612;28;20028;-81
2022/06/23 07:34:37;;;;;;;8.35;4.07;;;19.50;99.90;;;;;;5075009;28;20021;-81
2022/06/23 07:37:18;;;;;;;7.30;3.10;;;19.60;99.90;;;;;;5085901;28;20460;-81
2022/06/23 07:39:47;;;;;;;10.93;3.47;;;19.70;99.90;;;;;;5091338;28;20024;-81
2022/06/23 07:42:37;;;;;;;13.88;4.03;;;19.80;99.90;;;;;;5079959;28;20028;-80
2022/06/23 07:45:12;;;;;;;10.70;3.75;;;19.90;99.90;;;;;;5085964;28;20025;-82
2022/06/23 07:47:38;;;;;;;10.43;3.83;;;20.00;99.90;;;;;;5075131;28;20025;-83
2022/06/23 07:50:04;;;;;;;11.25;3.28;;;20.20;99.90;;;;;;5073487;28;20071;-83
2022/06/23 07:52:30;;;;;;;6.53;3.60;;;20.30;99.90;;;;;;5070240;28;20552;-84
2022/06/23 07:54:57;;;;;;;9.73;3.13;;;20.40;99.90;;;;;;5062809;28;20107;-85
2022/06/23 07:57:25;;;;;;;8.60;3.42;;;20.50;99.90;;;;;;5074415;28;20020;-84
2022/06/23 07:59:59;;;;;;;13.77;3.78;;;20.60;99.90;;;;;;5067233;28;20465;-85
2022/06/23 08:02:43;;;;;;;9.60;3.97;;;20.70;99.90;;;;;;5061570;28;20476;-84
2022/06/23 08:05:20;;;;;;;11.73;4.18;;;20.80;99.90;;;;;;5073940;28;20523;-83
2022/06/23 08:07:46;;;;;;;14.75;3.13;;;21.00;99.90;;;;;;5068424;28;20107;-84
2022/06/23 08:10:21;;;;;;;9.70;3.05;;;21.10;99.90;;;;;;5061541;28;20024;-84
2022/06/23 08:12:55;;;;;;;;;;;21.10;99.90;;;;;;5054382;28;20104;-84
2022/06/23 08:18:36;;;;;;;9.13;3.47;;;21.40;99.90;;;;;;5054887;28;20086;-84
2022/06/23 08:21:29;;;;;;;8.02;2.95;;;21.50;99.90;;;;;;5060071;28;20161;-84
2022/06/23 08:23:58;;;;;;;7.85;2.80;;;21.50;99.90;;;;;;5073132;28;20032;-84
2022/06/23 08:26:30;;;;;;;7.95;2.60;;;21.60;99.90;;;;;;5073752;28;20036;-84
2022/06/23 08:29:01;;;;;;;8.10;2.40;;;21.70;99.90;;;;;;5072944;28;20044;-83
2022/06/23 08:31:29;;;;;;;8.55;2.75;;;21.90;99.90;;;;;;5068789;28;20370;-84
2022/06/23 08:33:57;;;;;;;7.15;1.83;;;22.10;99.90;;;;;;5060264;28;20157;-84
2022/06/23 08:36:44;;;;;;;4.72;1.80;;;22.30;99.90;;;;;;5066783;28;20024;-84
2022/06/23 08:39:19;;;;;;;5.88;1.42;;;22.30;99.90;;;;;;5066229;28;20031;-84
2022/06/23 08:42:10;;;;;;;3.47;1.63;;;22.50;94.80;;;;;;5068434;28;20484;-84
2022/06/23 08:44:56;;;;;;;4.45;1.58;;;22.60;90.90;;;;;;5067382;28;20285;-84
2022/06/23 08:47:32;;;;;;;10.50;1.40;;;22.70;83.80;;;;;;5068117;28;20024;-84
2022/06/23 08:50:11;;;;;;;5.82;1.75;;;22.90;78.50;;;;;;5063502;28;20123;-84
2022/06/23 08:53:01;;;;;;;8.10;1.50;;;23.00;72.10;;;;;;5062306;28;20029;-84
2022/06/23 08:55:41;;;;;;;4.35;1.80;;;23.10;77.20;;;;;;5068581;28;20506;-84
2022/06/23 08:58:41;;;;;;;4.00;1.38;;;23.20;73.00;;;;;;5068461;28;20020;-84
2022/06/23 09:01:28;;;;;;;3.70;1.40;;;23.30;76.70;;;;;;5069468;28;20089;-85
2022/06/23 09:04:20;;;;;;;5.78;1.60;;;23.40;73.20;;;;;;5060589;28;20051;-84
2022/06/23 09:06:57;;;;;;;6.82;1.40;;;23.50;62.50;;;;;;5071209;28;20045;-84
2022/06/23 09:09:31;;;;;;;1.35;0.85;;;23.60;59.60;;;;;;5070496;28;20533;-86
2022/06/23 09:12:02;;;;;;;4.47;1.40;;;23.60;59.70;;;;;;5070670;28;20060;-85
2022/06/23 09:15:00;;;;;;;2.50;1.30;;;23.70;57.00;;;;;;5079290;28;20036;-85
2022/06/23 09:17:45;;;;;;;4.38;1.33;;;23.70;59.10;;;;;;5043286;28;20035;-84
2022/06/23 09:20:25;;;;;;;3.55;1.35;;;23.80;60.80;;;;;;5073190;28;20060;-84
2022/06/23 09:23:36;;;;;;;5.65;1.50;;;23.90;59.20;;;;;;5070655;28;20029;-85
2022/06/23 09:26:34;;;;;;;2.38;1.35;;;23.90;58.60;;;;;;5056814;28;20056;-85
2022/06/23 09:29:11;;;;;;;5.15;1.48;;;24.00;55.80;;;;;;5069467;28;20119;-85
2022/06/23 09:31:56;;;;;;;4.60;1.40;;;24.10;55.10;;;;;;5068799;28;20103;-85
2022/06/23 09:34:47;;;;;;;4.28;1.50;;;24.10;52.70;;;;;;5062353;28;20134;-84
2022/06/23 09:37:34;;;;;;;2.03;1.42;;;24.20;50.70;;;;;;5062672;28;20496;-85
2022/06/23 09:40:26;;;;;;;4.55;1.38;;;24.30;51.10;;;;;;5069887;28;20041;-85
2022/06/23 09:43:22;;;;;;;5.35;1.15;;;24.30;52.70;;;;;;5063098;28;20059;-85
2022/06/23 09:46:13;;;;;;;6.07;1.52;;;24.40;51.70;;;;;;5069339;28;20035;-84
2022/06/23 09:49:07;;;;;;;5.32;0.98;;;24.50;49.70;;;;;;5066358;28;20082;-85
2022/06/23 09:52:19;;;;;;;11.00;1.80;;;24.50;49.00;;;;;;5062583;28;20391;-85
2022/06/23 09:55:16;;;;;;;3.70;1.52;;;24.50;48.70;;;;;;5056826;28;20036;-87
2022/06/23 09:58:13;;;;;;;6.72;1.70;;;24.60;47.70;;;;;;5068124;28;20025;-84
2022/06/23 10:00:59;;;;;;;4.70;1.77;;;24.70;48.00;;;;;;5072659;28;20012;-84
2022/06/23 10:03:41;;;;;;;3.25;1.10;;;24.70;48.70;;;;;;5068813;28;20017;-84
2022/06/23 10:06:43;;;;;;;1.88;1.10;;;24.90;46.00;;;;;;5063013;28;20044;-84
2022/06/23 10:09:29;;;;;;;2.75;1.20;;;25.10;46.70;;;;;;5061114;28;20079;-84
2022/06/23 10:12:16;;;;;;;11.23;1.30;;;25.10;46.60;;;;;;5072075;28;20029;-84
2022/06/23 10:15:14;;;;;;;2.72;1.20;;;25.10;45.40;;;;;;5072227;28;20082;-84
2022/06/23 10:18:12;;;;;;;4.15;1.40;;;25.10;46.40;;;;;;5052702;28;20449;-85
2022/06/23 10:21:09;;;;;;;3.17;1.20;;;25.10;47.70;;;;;;5066819;28;20028;-84
2022/06/23 10:24:03;;;;;;;3.47;1.48;;;25.00;46.70;;;;;;5060506;28;20376;-84
2022/06/23 10:26:45;;;;;;;3.90;1.30;;;25.10;47.60;;;;;;5058715;28;20419;-92
2022/06/23 10:29:41;;;;;;;3.85;1.70;;;25.10;48.20;;;;;;5062593;28;20107;-84
2022/06/23 10:32:37;;;;;;;7.57;1.58;;;25.20;46.90;;;;;;5062635;28;20024;-83
2022/06/23 10:35:30;;;;;;;4.85;1.48;;;25.30;47.50;;;;;;5058091;28;20036;-84
2022/06/23 10:38:14;;;;;;;5.30;1.70;;;25.30;47.20;;;;;;5063792;28;20031;-83
2022/06/23 10:41:06;;;;;;;2.58;1.67;;;25.40;46.10;;;;;;5065594;28;20487;-82
2022/06/23 10:43:51;;;;;;;8.13;1.42;;;25.40;47.20;;;;;;5056789;28;20034;-83
2022/06/23 10:46:31;;;;;;;2.80;1.30;;;25.40;44.30;;;;;;5071321;28;20035;-83
2022/06/23 10:49:34;;;;;;;4.13;1.30;;;25.40;45.70;;;;;;5067166;28;20029;-83
2022/06/23 10:52:29;;;;;;;4.43;1.33;;;25.50;45.20;;;;;;5068777;28;20037;-83
2022/06/23 10:55:33;;;;;;;5.45;1.85;;;25.60;45.40;;;;;;5054835;28;20033;-84
2022/06/23 10:58:35;;;;;;;3.38;1.40;;;25.60;44.30;;;;;;5067826;28;22081;-83
2022/06/23 11:01:23;;;;;;;2.88;1.50;;;25.70;44.60;;;;;;5065016;28;20033;-83
2022/06/23 11:04:14;;;;;;;5.18;1.30;;;25.70;45.20;;;;;;5065145;28;20029;-83
2022/06/23 11:07:36;;;;;;;1.85;1.08;;;25.70;45.60;;;;;;5071274;28;20068;-83
2022/06/23 11:10:26;;;;;;;3.33;1.25;;;25.80;43.60;;;;;;4998328;28;20145;-83
2022/06/23 11:13:10;;;;;;;3.22;1.38;;;25.80;44.00;;;;;;5068154;28;20033;-84
2022/06/23 11:15:59;;;;;;;3.72;1.10;;;25.80;43.60;;;;;;5071014;28;20036;-83
2022/06/23 11:18:43;;;;;;;2.88;1.60;;;25.80;45.40;;;;;;5071577;28;20035;-83
2022/06/23 11:21:27;;;;;;;2.78;1.38;;;25.90;46.40;;;;;;5070701;28;20078;-83
2022/06/23 11:24:40;;;;;;;1.52;1.25;;;25.90;46.80;;;;;;5057250;28;20477;-83
2022/06/23 11:27:16;;;;;;;3.15;1.48;;;26.00;45.70;;;;;;5030470;28;20025;-83
2022/06/23 11:29:51;;;;;;;2.80;1.40;;;26.00;46.00;;;;;;5070191;28;20055;-83
2022/06/23 11:32:58;;;;;;;1.27;1.15;;;26.10;45.80;;;;;;5060132;28;20021;-83
2022/06/23 11:36:02;;;;;;;5.43;1.98;;;26.20;44.70;;;;;;5055710;28;20025;-84
2022/06/23 11:38:58;;;;;;;2.90;1.30;;;26.10;43.40;;;;;;5071489;28;20040;-83
2022/06/23 11:42:00;;;;;;;3.88;1.65;;;26.10;44.90;;;;;;5074398;28;20029;-84
2022/06/23 11:44:26;;;;;;;3.72;1.63;;;26.20;45.10;;;;;;5071993;28;20082;-83
2022/06/23 11:47:19;;;;;;;4.72;1.42;;;26.30;43.40;;;;;;5071841;28;20472;-83
2022/06/23 11:50:08;;;;;;;2.45;1.20;;;26.30;44.90;;;;;;5068479;28;20116;-83
2022/06/23 11:53:06;;;;;;;4.70;1.48;;;26.30;44.30;;;;;;5070107;28;20096;-85
2022/06/23 11:55:48;;;;;;;2.40;1.40;;;26.40;44.10;;;;;;5060562;28;20031;-83
2022/06/23 11:58:23;;;;;;;2.13;1.27;;;26.50;42.70;;;;;;5057627;28;20027;-83
2022/06/23 12:00:53;;;;;;;;;;;26.50;42.50;;;;;;5065693;28;20121;-83
2022/06/23 12:03:22;;;;;;;4.63;1.33;;;26.60;42.60;;;;;;5066394;28;20379;-83
2022/06/23 12:06:01;;;;;;;3.17;1.60;;;26.60;42.50;;;;;;5068473;28;20052;-83
2022/06/23 12:09:08;;;;;;;3.20;1.17;;;26.70;42.20;;;;;;5069962;28;20103;-83
2022/06/23 12:11:36;;;;;;;6.22;1.15;;;26.60;41.70;;;;;;5069627;28;20516;-83
2022/06/23 12:14:07;;;;;;;4.10;1.50;;;26.60;41.10;;;;;;5073972;28;20027;-84
2022/06/23 12:16:47;;;;;;;5.40;1.75;;;26.60;39.90;;;;;;5072640;28;20013;-84
2022/06/23 12:19:17;;;;;;;5.82;1.45;;;26.60;40.40;;;;;;5068318;28;20073;-84
2022/06/23 12:22:06;;;;;;;4.57;1.40;;;26.60;41.40;;;;;;5072363;28;20036;-83
2022/06/23 12:24:46;;;;;;;4.25;1.23;;;26.70;40.60;;;;;;5064063;28;20121;-83
2022/06/23 12:27:39;;;;;;;3.45;1.38;;;26.70;41.40;;;;;;5066608;28;20020;-83
2022/06/23 12:30:07;;;;;;;2.97;1.50;;;26.90;40.80;;;;;;5066777;28;20024;-83
2022/06/23 12:32:47;;;;;;;2.53;1.25;;;27.00;40.90;;;;;;5069562;28;20021;-84
2022/06/23 12:35:35;;;;;;;1.70;1.35;;;27.10;39.70;;;;;;5072099;28;20021;-84
2022/06/23 12:38:15;;;;;;;4.20;1.40;;;27.10;40.60;;;;;;5066303;28;20039;-84
2022/06/23 12:40:45;;;;;;;3.53;1.42;;;27.00;41.70;;;;;;5068510;28;20029;-83
2022/06/23 12:43:40;;;;;;;1.70;1.30;;;27.00;40.10;;;;;;5070493;28;20040;-83
2022/06/23 12:46:24;;;;;;;8.32;1.67;;;27.00;39.80;;;;;;5064203;28;20036;-84
2022/06/23 12:49:18;;;;;;;4.82;1.20;;;26.90;39.40;;;;;;5067671;28;20352;-84
2022/06/23 12:52:02;;;;;;;17.80;1.67;;;27.00;39.90;;;;;;5064156;28;20024;-83
2022/06/23 12:55:01;;;;;;;3.17;1.25;;;26.90;39.20;;;;;;5053601;28;20053;-83
2022/06/23 12:58:01;;;;;;;1.90;1.27;;;27.00;39.70;;;;;;5072102;28;20048;-84
2022/06/23 13:00:33;;;;;;;6.13;1.58;;;27.00;40.70;;;;;;5073604;28;20048;-84
2022/06/23 13:03:22;;;;;;;20.00;1.70;;;27.10;39.80;;;;;;5072498;28;20039;-84
2022/06/23 13:05:56;;;;;;;4.88;1.27;;;27.20;39.50;;;;;;5061505;28;20080;-83
2022/06/23 13:08:28;;;;;;;6.40;1.48;;;27.40;38.60;;;;;;5059899;28;20137;-84
2022/06/23 13:11:01;;;;;;;6.43;1.85;;;27.40;39.10;;;;;;5070168;28;20037;-84
2022/06/23 13:13:47;;;;;;;4.40;1.23;;;27.30;40.60;;;;;;5063353;28;20040;-85
2022/06/23 13:16:27;;;;;;;6.72;1.17;;;27.30;41.60;;;;;;5055411;28;20032;-84
2022/06/23 13:19:06;;;;;;;2.90;1.20;;;27.30;41.30;;;;;;5073336;28;20044;-84
2022/06/23 13:21:34;;;;;;;4.60;1.08;;;27.30;40.40;;;;;;5073164;28;20047;-84
2022/06/23 13:24:20;;;;;;;1.40;1.00;;;27.30;39.30;;;;;;5073446;28;20020;-84
2022/06/23 13:27:06;;;;;;;4.80;1.55;;;27.40;38.70;;;;;;5072130;28;20028;-84
2022/06/23 13:29:40;;;;;;;3.40;1.38;;;27.40;37.90;;;;;;5071761;28;20081;-84
2022/06/23 13:32:27;;;;;;;3.65;1.50;;;27.30;38.10;;;;;;5072037;28;20028;-85
2022/06/23 13:35:26;;;;;;;11.23;1.58;;;27.30;37.70;;;;;;5071239;28;20029;-84
2022/06/23 13:38:13;;;;;;;1.52;1.17;;;27.30;39.60;;;;;;5073065;28;20023;-84
2022/06/23 13:40:56;;;;;;;7.97;1.27;;;27.40;38.80;;;;;;5066487;28;20047;-85
2022/06/23 13:43:47;;;;;;;9.75;1.35;;;27.40;37.80;;;;;;5062848;28;20089;-85
2022/06/23 13:46:22;;;;;;;4.82;1.38;;;27.30;38.70;;;;;;5071004;28;20489;-84
2022/06/23 13:49:04;;;;;;;5.13;1.90;;;27.30;38.80;;;;;;5071990;28;20025;-85
2022/06/23 13:51:34;;;;;;;2.45;1.58;;;27.30;37.70;;;;;;5071281;28;20032;-86
2022/06/23 13:54:30;;;;;;;1.15;1.05;;;27.30;37.30;;;;;;5072102;28;20038;-84
2022/06/23 13:57:29;;;;;;;3.25;1.58;;;27.40;38.70;;;;;;5066662;28;20021;-85
2022/06/23 14:00:15;;;;;;;5.32;1.35;;;27.30;37.30;;;;;;5066133;28;20103;-85
2022/06/23 14:02:57;;;;;;;3.17;1.45;;;27.30;38.10;;;;;;5069627;28;20024;-85
2022/06/23 14:05:44;;;;;;;1.85;0.90;;;27.20;37.80;;;;;;5068447;28;20122;-85
2022/06/23 14:08:36;;;;;;;2.00;1.38;;;27.20;38.40;;;;;;5072416;28;20044;-85
2022/06/23 14:11:37;;;;;;;11.35;1.55;;;27.20;38.70;;;;;;5062698;28;20467;-85
2022/06/23 14:14:21;;;;;;;2.97;1.15;;;27.30;38.40;;;;;;5084226;28;20038;-86
2022/06/23 14:17:05;;;;;;;4.20;1.48;;;27.30;36.90;;;;;;5073894;28;20082;-85
2022/06/23 14:19:55;;;;;;;4.07;1.50;;;27.40;36.70;;;;;;5066551;28;20020;-85
2022/06/23 14:22:43;;;;;;;2.63;1.38;;;27.40;38.60;;;;;;5061190;28;20028;-85
2022/06/23 14:25:30;;;;;;;6.38;1.50;;;27.40;38.30;;;;;;5036677;28;20037;-84
2022/06/23 14:28:15;;;;;;;2.92;1.17;;;27.40;38.90;;;;;;5070797;28;20024;-85
2022/06/23 14:31:07;;;;;;;7.60;1.50;;;27.40;38.90;;;;;;5081724;28;20068;-85
2022/06/23 14:33:48;;;;;;;10.65;1.35;;;27.50;37.70;;;;;;5075468;28;20017;-86
2022/06/23 14:36:26;;;;;;;1.30;1.20;;;27.50;36.40;;;;;;5074303;28;20024;-84
2022/06/23 14:38:59;;;;;;;8.85;1.38;;;27.50;36.40;;;;;;5069457;28;20074;-85
2022/06/23 14:41:51;;;;;;;5.57;1.30;;;27.50;36.30;;;;;;5073164;28;20495;-85
2022/06/23 14:44:41;;;;;;;8.18;1.17;;;27.40;36.30;;;;;;5074541;28;20024;-85
2022/06/23 14:47:37;;;;;;;2.55;1.50;;;27.50;37.90;;;;;;5074265;28;20565;-85
2022/06/23 14:50:33;;;;;;;7.80;1.42;;;27.60;36.30;;;;;;5065916;28;20024;-85
2022/06/23 14:53:16;;;;;;;2.25;1.42;;;27.60;36.60;;;;;;5070074;28;20082;-84
2022/06/23 14:56:06;;;;;;;3.65;1.20;;;27.60;36.80;;;;;;5074170;28;20066;-85
2022/06/23 14:58:53;;;;;;;2.95;1.10;;;27.60;36.70;;;;;;5067757;28;20021;-85
2022/06/23 15:01:44;;;;;;;1.70;1.33;;;27.60;36.10;;;;;;5058160;28;20032;-85
2022/06/23 15:04:28;;;;;;;5.72;1.35;;;27.60;36.10;;;;;;5073988;28;20488;-84
2022/06/23 15:07:21;;;;;;;5.00;1.40;;;27.70;36.20;;;;;;5075329;28;20074;-85
2022/06/23 15:09:56;;;;;;;10.50;1.70;;;27.70;36.30;;;;;;5054618;28;20032;-86
2022/06/23 15:12:51;;;;;;;6.20;1.48;;;27.70;35.90;;;;;;5074032;28;20652;-86
2022/06/23 15:15:48;;;;;;;2.90;1.38;;;27.70;37.00;;;;;;5070891;28;20025;-86